Time;durP1;ratioP1;P1;durP2;ratioP2;P2;SDS_P1;SDS_P2;PMS_P1;PMS_P2;Temp;Humidity;BMP_temperature;BMP_pressure;BME280_temperature;BME280_humidity;BME280_pressure;Samples;Min_cycle;Max_cycle;Signal;HPM_P1;HPM_P2
2021/01/13 00:00:09;;;;;;;2.30;1.40;;;6.30;99.90;;;;;;5072369;28;20281;-78
2021/01/13 00:02:36;;;;;;;6.10;2.10;;;6.30;99.90;;;;;;5072395;28;20198;-78
2021/01/13 00:05:02;;;;;;;4.20;2.00;;;6.30;99.90;;;;;;5072579;28;20206;-78
2021/01/13 00:07:28;;;;;;;4.68;1.88;;;6.20;99.90;;;;;;5073512;28;20592;-79
2021/01/13 00:09:55;;;;;;;4.57;2.28;;;6.20;99.90;;;;;;5091431;28;20209;-79
2021/01/13 00:12:22;;;;;;;1.85;1.48;;;6.20;99.90;;;;;;5087504;28;20247;-79
2021/01/13 00:14:48;;;;;;;6.85;1.83;;;6.20;99.90;;;;;;5091616;28;20704;-78
2021/01/13 00:17:14;;;;;;;7.07;1.92;;;6.20;99.90;;;;;;5090113;28;20197;-79
2021/01/13 00:19:40;;;;;;;1.80;1.67;;;6.30;99.90;;;;;;5080934;28;20189;-79
2021/01/13 00:22:08;;;;;;;2.92;1.83;;;6.20;99.90;;;;;;5081710;28;20198;-79
2021/01/13 00:24:35;;;;;;;2.42;1.20;;;6.10;99.90;;;;;;5072123;28;20198;-79
2021/01/13 00:27:03;;;;;;;3.15;1.60;;;6.10;99.90;;;;;;5078321;28;20202;-78
2021/01/13 00:29:29;;;;;;;6.25;1.80;;;6.00;99.90;;;;;;5087094;28;20251;-78
2021/01/13 00:31:57;;;;;;;3.30;1.40;;;6.00;99.90;;;;;;5072587;28;20530;-79
2021/01/13 00:34:23;;;;;;;2.95;1.65;;;6.00;99.90;;;;;;5078590;28;20716;-79
2021/01/13 00:36:50;;;;;;;4.32;1.80;;;6.10;99.90;;;;;;5091850;28;20225;-79
2021/01/13 00:39:16;;;;;;;5.03;1.90;;;6.00;99.90;;;;;;5076549;28;20198;-78
2021/01/13 00:41:43;;;;;;;4.10;1.42;;;6.10;99.90;;;;;;5072356;28;20650;-80
2021/01/13 00:44:10;;;;;;;2.88;1.90;;;6.10;99.90;;;;;;5072457;28;20205;-81
2021/01/13 00:46:38;;;;;;;2.97;1.58;;;6.10;99.90;;;;;;5072195;28;20575;-77
2021/01/13 00:49:05;;;;;;;1.30;1.10;;;6.10;99.90;;;;;;5072101;28;20202;-76
2021/01/13 00:51:36;;;;;;;4.60;1.98;;;6.00;99.90;;;;;;5072428;28;20206;-77
2021/01/13 00:54:04;;;;;;;5.63;1.50;;;6.00;99.90;;;;;;5072214;28;20218;-77
2021/01/13 00:56:30;;;;;;;2.28;1.40;;;6.00;99.90;;;;;;5072506;28;20190;-77
2021/01/13 00:58:57;;;;;;;4.75;2.00;;;6.00;99.90;;;;;;5072756;28;20201;-77
2021/01/13 01:01:26;;;;;;;4.28;1.75;;;6.00;99.90;;;;;;5072662;28;20202;-78
2021/01/13 01:03:53;;;;;;;2.83;1.50;;;6.00;99.90;;;;;;5071742;28;20201;-77
2021/01/13 01:06:19;;;;;;;3.65;2.08;;;6.00;99.90;;;;;;5089339;28;20206;-78
2021/01/13 01:08:45;;;;;;;3.20;2.25;;;6.00;99.90;;;;;;5086592;28;20510;-77
2021/01/13 01:11:13;;;;;;;4.85;1.83;;;6.00;99.90;;;;;;5082640;28;20201;-78
2021/01/13 01:13:39;;;;;;;4.07;1.90;;;6.00;99.90;;;;;;5072123;28;20200;-77
2021/01/13 01:16:05;;;;;;;3.60;1.75;;;6.00;99.90;;;;;;5083161;28;20220;-77
2021/01/13 01:18:32;;;;;;;5.32;1.88;;;5.90;99.90;;;;;;5083453;28;20197;-77
2021/01/13 01:20:58;;;;;;;3.50;1.70;;;6.00;99.90;;;;;;5090168;28;20197;-77
2021/01/13 01:23:25;;;;;;;3.33;2.72;;;5.90;99.90;;;;;;5091966;28;20193;-77
2021/01/13 01:25:51;;;;;;;4.90;1.63;;;6.00;99.90;;;;;;5091052;28;20537;-76
2021/01/13 01:28:17;;;;;;;2.45;1.70;;;5.90;99.90;;;;;;5084727;28;20542;-77
2021/01/13 01:30:43;;;;;;;3.70;2.17;;;5.90;99.90;;;;;;5077559;28;20201;-76
2021/01/13 01:33:10;;;;;;;3.95;1.30;;;5.90;99.90;;;;;;5091881;28;20204;-77
2021/01/13 01:35:37;;;;;;;3.20;2.15;;;5.90;99.90;;;;;;5091089;28;20224;-77
2021/01/13 01:38:04;;;;;;;4.28;2.22;;;5.90;99.90;;;;;;5076951;28;20224;-77
2021/01/13 01:40:30;;;;;;;7.03;2.00;;;5.90;99.90;;;;;;5089029;28;20190;-77
2021/01/13 01:42:56;;;;;;;3.45;1.85;;;5.90;99.90;;;;;;5071759;28;20198;-77
2021/01/13 01:45:26;;;;;;;8.88;2.00;;;6.00;99.90;;;;;;5071917;28;20206;-79
2021/01/13 01:48:15;;;;;;;3.25;1.70;;;6.00;99.90;;;;;;5075732;28;20193;-79
2021/01/13 01:50:44;;;;;;;3.80;1.90;;;5.90;99.90;;;;;;5080278;28;20255;-79
2021/01/13 01:53:35;;;;;;;2.20;1.98;;;5.90;99.90;;;;;;5091308;28;20254;-79
2021/01/13 01:56:13;;;;;;;2.47;1.63;;;5.90;99.90;;;;;;5076842;28;20218;-78
2021/01/13 01:58:43;;;;;;;4.72;2.40;;;5.90;99.90;;;;;;5071740;28;20271;-78
2021/01/13 02:01:10;;;;;;;3.08;1.92;;;5.90;99.90;;;;;;5081885;28;20202;-78
2021/01/13 02:03:44;;;;;;;3.65;1.65;;;5.90;99.90;;;;;;5075506;28;20541;-78
2021/01/13 02:06:14;;;;;;;8.73;2.03;;;5.80;99.90;;;;;;5085497;28;20193;-78
2021/01/13 02:08:42;;;;;;;3.97;2.33;;;5.90;99.90;;;;;;5086052;28;20190;-78
2021/01/13 02:11:14;;;;;;;4.90;2.38;;;5.90;99.90;;;;;;5087391;28;20205;-78
2021/01/13 02:13:40;;;;;;;4.70;2.65;;;5.80;99.90;;;;;;5095425;28;20638;-78
2021/01/13 02:16:07;;;;;;;5.07;2.40;;;5.80;99.90;;;;;;5094852;28;20197;-78
2021/01/13 02:18:36;;;;;;;4.20;2.05;;;5.80;99.90;;;;;;5093889;28;20194;-77
2021/01/13 02:21:04;;;;;;;4.97;2.75;;;5.80;99.90;;;;;;5087140;28;20190;-77
2021/01/13 02:23:33;;;;;;;4.22;2.22;;;5.70;99.90;;;;;;5095408;28;20670;-77
2021/01/13 02:26:35;;;;;;;6.60;2.80;;;5.70;99.90;;;;;;5076086;28;20622;-79
2021/01/13 02:29:15;;;;;;;3.65;2.30;;;5.70;99.90;;;;;;5062719;28;20239;-79
2021/01/13 02:31:53;;;;;;;3.95;2.97;;;5.70;99.90;;;;;;5082896;28;20706;-79
2021/01/13 02:34:24;;;;;;;7.88;2.53;;;5.60;99.90;;;;;;5074482;28;20646;-79
2021/01/13 02:37:27;;;;;;;5.25;2.60;;;5.70;99.90;;;;;;5074636;28;20681;-79
2021/01/13 02:39:56;;;;;;;4.38;3.10;;;5.60;99.90;;;;;;5077340;28;20202;-79
2021/01/13 02:42:24;;;;;;;6.30;2.72;;;5.70;99.90;;;;;;5092147;28;20247;-79
2021/01/13 02:45:07;;;;;;;10.65;2.55;;;5.60;99.90;;;;;;5080493;28;20332;-80
2021/01/13 02:48:12;;;;;;;5.97;2.30;;;5.70;99.90;;;;;;5074625;28;20198;-80
2021/01/13 02:50:54;;;;;;;4.47;2.78;;;5.70;99.90;;;;;;5076173;28;20201;-78
2021/01/13 02:53:49;;;;;;;7.00;2.88;;;5.70;99.90;;;;;;5094983;28;20541;-78
2021/01/13 02:56:44;;;;;;;4.20;2.90;;;5.70;99.90;;;;;;5081739;28;20209;-78
2021/01/13 02:59:12;;;;;;;3.05;2.05;;;5.70;99.90;;;;;;5083383;28;20198;-79
2021/01/13 03:01:42;;;;;;;5.25;2.80;;;5.70;99.90;;;;;;5074078;28;20631;-80
2021/01/13 03:04:09;;;;;;;6.75;3.00;;;5.70;99.90;;;;;;5074342;28;20205;-80
2021/01/13 03:06:41;;;;;;;4.35;2.53;;;5.60;99.90;;;;;;5078912;28;20327;-80
2021/01/13 03:09:09;;;;;;;4.22;2.38;;;5.60;99.90;;;;;;5077332;28;20206;-79
2021/01/13 03:11:36;;;;;;;4.30;2.85;;;5.60;99.90;;;;;;5081198;28;20208;-79
2021/01/13 03:14:15;;;;;;;3.53;2.38;;;5.50;99.90;;;;;;5082825;28;20515;-80
2021/01/13 03:16:50;;;;;;;12.32;3.15;;;5.50;99.90;;;;;;5086088;28;20197;-79
2021/01/13 03:19:19;;;;;;;8.25;2.70;;;5.60;99.90;;;;;;5082834;28;20190;-79
2021/01/13 03:21:55;;;;;;;4.38;3.38;;;5.60;99.90;;;;;;5075803;28;20252;-79
2021/01/13 03:24:35;;;;;;;8.15;3.13;;;5.50;99.90;;;;;;5073826;28;20182;-80
2021/01/13 03:27:03;;;;;;;2.80;2.20;;;5.60;99.90;;;;;;5073908;28;20194;-77
2021/01/13 03:29:33;;;;;;;4.53;2.47;;;5.50;99.90;;;;;;5073854;28;20394;-77
2021/01/13 03:32:07;;;;;;;4.97;2.78;;;5.50;99.90;;;;;;5073721;28;20276;-77
2021/01/13 03:34:39;;;;;;;5.30;2.70;;;5.40;99.90;;;;;;5074748;28;20201;-77
2021/01/13 03:37:22;;;;;;;5.15;3.30;;;5.50;99.90;;;;;;5073685;28;20234;-77
2021/01/13 03:39:51;;;;;;;5.70;4.00;;;5.50;99.90;;;;;;5077296;28;20256;-77
2021/01/13 03:42:18;;;;;;;6.35;2.88;;;5.50;99.90;;;;;;5086953;28;20634;-77
2021/01/13 03:44:46;;;;;;;6.05;2.90;;;5.40;99.90;;;;;;5090251;28;20526;-78
2021/01/13 03:47:46;;;;;;;6.78;3.40;;;5.40;99.90;;;;;;5074044;28;20198;-77
2021/01/13 03:50:18;;;;;;;3.72;2.60;;;5.40;99.90;;;;;;5073533;28;20202;-77
2021/01/13 03:52:55;;;;;;;4.43;3.03;;;5.40;99.90;;;;;;5073906;28;20186;-77
2021/01/13 03:55:22;;;;;;;4.68;2.85;;;5.40;99.90;;;;;;5076317;28;20205;-78
2021/01/13 03:58:22;;;;;;;9.65;3.35;;;5.40;99.90;;;;;;5073452;28;20228;-77
2021/01/13 04:01:02;;;;;;;4.13;3.03;;;5.40;99.90;;;;;;5077375;28;20201;-77
2021/01/13 04:03:30;;;;;;;5.88;2.60;;;5.40;99.90;;;;;;5089915;28;20190;-77
2021/01/13 04:06:05;;;;;;;3.58;2.17;;;5.50;99.90;;;;;;5073211;28;20251;-78
2021/01/13 04:08:35;;;;;;;9.38;3.40;;;5.50;99.90;;;;;;5086894;28;20223;-78
2021/01/13 04:11:03;;;;;;;4.70;3.28;;;5.40;99.90;;;;;;5087213;28;20197;-77
2021/01/13 04:13:44;;;;;;;5.15;2.53;;;5.40;99.90;;;;;;5072966;28;20200;-76
2021/01/13 04:16:13;;;;;;;8.45;2.40;;;5.40;99.90;;;;;;5080685;28;20232;-77
2021/01/13 04:18:42;;;;;;;4.13;3.15;;;5.40;99.90;;;;;;5088295;28;20201;-77
2021/01/13 04:21:11;;;;;;;3.92;2.40;;;5.40;99.90;;;;;;5092257;28;20205;-76
2021/01/13 04:23:38;;;;;;;6.50;3.75;;;5.30;99.90;;;;;;5091508;28;20330;-77
2021/01/13 04:26:05;;;;;;;5.53;2.55;;;5.30;99.90;;;;;;5092868;28;20198;-76
2021/01/13 04:28:32;;;;;;;3.10;2.80;;;5.30;99.90;;;;;;5089675;28;20193;-78
2021/01/13 04:30:59;;;;;;;5.30;3.00;;;5.30;99.90;;;;;;5081155;28;20197;-80
2021/01/13 04:33:26;;;;;;;5.97;2.78;;;5.40;99.90;;;;;;5091791;28;20201;-79
2021/01/13 04:35:54;;;;;;;3.83;2.50;;;5.30;99.90;;;;;;5091644;28;20270;-77
2021/01/13 04:38:25;;;;;;;3.45;3.08;;;5.40;99.90;;;;;;5088642;28;20229;-77
2021/01/13 04:41:08;;;;;;;3.90;2.65;;;5.40;99.90;;;;;;5077484;28;20235;-77
2021/01/13 04:43:53;;;;;;;7.18;3.13;;;5.30;99.90;;;;;;5092983;28;20205;-77
2021/01/13 04:46:28;;;;;;;9.23;3.15;;;5.30;99.90;;;;;;5075621;28;20194;-77
2021/01/13 04:49:05;;;;;;;5.32;3.20;;;5.30;99.90;;;;;;5074349;28;20205;-77
2021/01/13 04:51:34;;;;;;;4.68;2.83;;;5.40;99.90;;;;;;5071544;28;20193;-77
2021/01/13 04:54:08;;;;;;;8.25;2.95;;;5.40;99.90;;;;;;5071332;28;20194;-77
2021/01/13 04:57:11;;;;;;;6.05;2.83;;;5.30;99.90;;;;;;5091880;28;20189;-76
2021/01/13 05:00:11;;;;;;;6.82;3.00;;;5.30;99.90;;;;;;5092229;28;20629;-78
2021/01/13 05:03:19;;;;;;;4.78;2.95;;;5.30;99.90;;;;;;5078285;28;20202;-78
2021/01/13 05:05:49;;;;;;;5.72;2.35;;;5.30;99.90;;;;;;5058161;28;20198;-78
2021/01/13 05:08:40;;;;;;;8.88;2.92;;;5.30;99.90;;;;;;5085293;28;20271;-78
2021/01/13 05:11:11;;;;;;;7.32;3.28;;;5.30;99.90;;;;;;5083209;28;20193;-76
2021/01/13 05:13:41;;;;;;;4.95;3.20;;;5.20;99.90;;;;;;5084052;28;20194;-77
2021/01/13 05:16:11;;;;;;;4.50;3.25;;;5.30;99.90;;;;;;5085373;28;20206;-78
2021/01/13 05:18:55;;;;;;;13.45;3.10;;;5.30;99.90;;;;;;5092384;28;20216;-77
2021/01/13 05:21:23;;;;;;;3.25;2.30;;;5.30;99.90;;;;;;5082007;28;20197;-77
2021/01/13 05:23:52;;;;;;;6.97;3.78;;;5.30;99.90;;;;;;5072375;28;20205;-78
2021/01/13 05:26:20;;;;;;;4.68;2.83;;;5.30;99.90;;;;;;5071954;28;20197;-77
2021/01/13 05:29:32;;;;;;;4.53;2.83;;;5.30;99.90;;;;;;5071876;28;20205;-77
2021/01/13 05:32:00;;;;;;;3.17;2.72;;;5.30;99.90;;;;;;5072000;28;20274;-78
2021/01/13 05:34:32;;;;;;;6.45;3.72;;;5.30;99.90;;;;;;5075264;28;20225;-77
2021/01/13 05:37:17;;;;;;;11.27;3.55;;;5.30;99.90;;;;;;5075753;28;20237;-79
2021/01/13 05:39:47;;;;;;;3.33;2.25;;;5.30;99.90;;;;;;5076270;28;20208;-80
2021/01/13 05:42:15;;;;;;;10.13;3.60;;;5.30;99.90;;;;;;5075853;28;20212;-79
2021/01/13 05:44:42;;;;;;;3.40;3.10;;;5.30;99.90;;;;;;5079340;28;20568;-79
2021/01/13 05:47:41;;;;;;;5.40;2.65;;;5.30;99.90;;;;;;5093706;28;20552;-79
2021/01/13 05:50:11;;;;;;;7.55;2.70;;;5.30;99.90;;;;;;5076033;28;20198;-77
2021/01/13 05:52:42;;;;;;;4.07;2.40;;;5.30;99.90;;;;;;5076050;28;20600;-77
2021/01/13 05:55:10;;;;;;;5.97;2.53;;;5.20;99.90;;;;;;5075746;28;20224;-79
2021/01/13 05:57:37;;;;;;;3.38;2.22;;;5.20;99.90;;;;;;5075405;28;20198;-79
2021/01/13 06:00:05;;;;;;;4.80;3.15;;;5.20;99.90;;;;;;5075556;28;20210;-79
2021/01/13 06:02:38;;;;;;;3.67;2.15;;;5.20;99.90;;;;;;5076166;28;20634;-78
2021/01/13 06:05:07;;;;;;;6.25;3.05;;;5.30;99.90;;;;;;5078198;28;20193;-78
2021/01/13 06:07:34;;;;;;;3.92;2.80;;;5.20;99.90;;;;;;5075437;28;20198;-77
2021/01/13 06:10:02;;;;;;;5.60;2.72;;;5.20;99.90;;;;;;5075313;28;20194;-77
2021/01/13 06:12:31;;;;;;;5.03;3.13;;;5.20;99.90;;;;;;5084514;28;20634;-78
2021/01/13 06:14:57;;;;;;;5.10;2.38;;;5.30;99.90;;;;;;5094652;28;20243;-78
2021/01/13 06:17:25;;;;;;;5.63;2.92;;;5.30;99.90;;;;;;5078218;28;20194;-78
2021/01/13 06:19:53;;;;;;;4.57;2.83;;;5.30;99.90;;;;;;5075125;28;20206;-77
2021/01/13 06:22:29;;;;;;;3.78;2.47;;;5.30;99.90;;;;;;5076300;28;20206;-77
2021/01/13 06:24:58;;;;;;;3.40;2.42;;;5.30;99.90;;;;;;5079535;28;20554;-77
2021/01/13 06:27:44;;;;;;;5.10;3.05;;;5.30;99.90;;;;;;5074801;28;20209;-77
2021/01/13 06:30:17;;;;;;;5.65;2.70;;;5.20;99.90;;;;;;5083306;28;20214;-77
2021/01/13 06:32:53;;;;;;;4.70;2.30;;;5.20;99.90;;;;;;5092659;28;20198;-77
2021/01/13 06:35:59;;;;;;;3.40;2.70;;;5.20;99.90;;;;;;5075078;28;20206;-76
2021/01/13 06:38:29;;;;;;;4.78;2.67;;;5.20;99.90;;;;;;5064261;28;20230;-77
2021/01/13 06:40:59;;;;;;;3.10;1.90;;;5.20;99.90;;;;;;5074615;28;20197;-78
2021/01/13 06:43:28;;;;;;;3.00;2.55;;;5.10;99.90;;;;;;5074637;28;20221;-77
2021/01/13 06:45:54;;;;;;;10.02;2.88;;;5.10;99.90;;;;;;5074058;28;20282;-77
2021/01/13 06:48:23;;;;;;;3.00;2.15;;;5.10;99.90;;;;;;5095033;28;20208;-78
2021/01/13 06:51:42;;;;;;;5.10;2.42;;;5.10;99.90;;;;;;5083196;28;20565;-76
2021/01/13 06:54:12;;;;;;;4.20;2.28;;;5.10;99.90;;;;;;5085229;28;20198;-77
2021/01/13 06:56:46;;;;;;;4.45;2.47;;;5.20;99.90;;;;;;5089881;28;20208;-77
2021/01/13 06:59:15;;;;;;;4.68;2.65;;;5.20;99.90;;;;;;5093618;28;20189;-77
2021/01/13 07:01:52;;;;;;;4.05;2.38;;;5.20;99.90;;;;;;5081027;28;20190;-76
2021/01/13 07:04:19;;;;;;;7.82;1.90;;;5.10;99.90;;;;;;5083028;28;20196;-79
2021/01/13 07:06:59;;;;;;;2.50;1.92;;;5.20;99.90;;;;;;5090100;28;20197;-78
2021/01/13 07:09:33;;;;;;;3.55;1.70;;;5.10;99.90;;;;;;5092777;28;20498;-77
2021/01/13 07:12:06;;;;;;;4.00;2.30;;;5.10;99.90;;;;;;5094223;28;20201;-77
2021/01/13 07:14:37;;;;;;;3.50;1.75;;;5.10;99.90;;;;;;5092670;28;20232;-78
2021/01/13 07:17:06;;;;;;;7.38;2.30;;;5.10;99.90;;;;;;5092521;28;20205;-78
2021/01/13 07:19:34;;;;;;;3.08;2.10;;;5.10;99.90;;;;;;5073733;28;20292;-78
2021/01/13 07:22:00;;;;;;;3.90;2.67;;;5.10;99.90;;;;;;5074517;28;20190;-78
2021/01/13 07:24:28;;;;;;;7.63;1.70;;;5.10;99.90;;;;;;5075058;28;20640;-77
2021/01/13 07:26:56;;;;;;;6.25;1.70;;;5.10;99.90;;;;;;5079249;28;20220;-78
2021/01/13 07:29:25;;;;;;;2.92;2.00;;;5.00;99.90;;;;;;5075993;28;20271;-76
2021/01/13 07:31:54;;;;;;;4.55;1.60;;;5.10;99.90;;;;;;5079210;28;20201;-77
2021/01/13 07:34:30;;;;;;;1.98;1.80;;;5.10;99.90;;;;;;5085384;28;20645;-77
2021/01/13 07:37:00;;;;;;;3.42;1.95;;;5.10;99.90;;;;;;5076344;28;20233;-76
2021/01/13 07:39:55;;;;;;;4.40;1.70;;;5.20;99.90;;;;;;5082024;28;20194;-75
2021/01/13 07:42:34;;;;;;;2.70;1.75;;;5.20;99.90;;;;;;5084127;28;20614;-76
2021/01/13 07:45:05;;;;;;;3.97;1.67;;;5.10;99.90;;;;;;5093183;28;20637;-76
2021/01/13 07:48:15;;;;;;;2.63;1.80;;;5.10;99.90;;;;;;5088627;28;20194;-76
2021/01/13 07:50:42;;;;;;;3.45;1.73;;;5.10;99.90;;;;;;5081421;28;20198;-76
2021/01/13 07:53:10;;;;;;;5.95;1.90;;;5.20;99.90;;;;;;5092858;28;20197;-76
2021/01/13 07:55:42;;;;;;;3.15;2.25;;;5.20;99.90;;;;;;5082491;28;20221;-75
2021/01/13 07:58:19;;;;;;;8.10;3.08;;;5.10;99.90;;;;;;5080959;28;20186;-75
2021/01/13 08:01:12;;;;;;;3.00;2.25;;;5.20;99.90;;;;;;5076546;28;20252;-75
2021/01/13 08:04:30;;;;;;;3.97;2.10;;;5.10;99.90;;;;;;5074015;28;20201;-75
2021/01/13 08:06:58;;;;;;;4.28;2.00;;;5.10;99.90;;;;;;5061520;28;20539;-76
2021/01/13 08:09:33;;;;;;;5.00;3.67;;;5.10;99.90;;;;;;5072506;28;20646;-76
2021/01/13 08:12:41;;;;;;;2.97;1.95;;;5.10;99.90;;;;;;5076019;28;20208;-76
2021/01/13 08:15:46;;;;;;;2.28;1.40;;;5.10;99.90;;;;;;5087404;28;20687;-76
2021/01/13 08:19:08;;;;;;;4.95;1.98;;;5.10;99.90;;;;;;5073830;28;20251;-76
2021/01/13 08:21:43;;;;;;;4.50;2.22;;;5.10;99.90;;;;;;5072420;28;20200;-77
2021/01/13 08:24:15;;;;;;;7.75;2.40;;;5.10;99.90;;;;;;5072646;28;20260;-76
2021/01/13 08:26:41;;;;;;;6.32;3.08;;;5.10;99.90;;;;;;5079766;28;20186;-75
2021/01/13 08:29:18;;;;;;;7.00;1.80;;;5.10;99.90;;;;;;5080154;28;20201;-76
2021/01/13 08:31:50;;;;;;;4.65;1.77;;;5.10;99.90;;;;;;5078455;28;20632;-76
2021/01/13 08:34:17;;;;;;;2.85;2.03;;;5.10;99.90;;;;;;5078283;28;20667;-77
2021/01/13 08:36:53;;;;;;;3.33;2.45;;;5.10;99.90;;;;;;5077212;28;20221;-77
2021/01/13 08:39:27;;;;;;;2.08;1.88;;;5.10;99.90;;;;;;5076220;28;20629;-76
2021/01/13 08:42:14;;;;;;;2.55;1.63;;;5.10;99.90;;;;;;5076515;28;20194;-77
2021/01/13 08:44:41;;;;;;;4.90;1.90;;;5.10;99.90;;;;;;5074583;28;20190;-80
2021/01/13 08:47:08;;;;;;;6.95;2.30;;;5.10;99.90;;;;;;5082477;28;20194;-80
2021/01/13 08:49:36;;;;;;;4.60;2.55;;;5.20;99.90;;;;;;5072752;28;20294;-81
2021/01/13 08:52:24;;;;;;;3.25;1.90;;;5.10;99.90;;;;;;5083369;28;20273;-81
2021/01/13 08:55:18;;;;;;;3.30;2.20;;;5.10;99.90;;;;;;5073621;28;20205;-80
2021/01/13 08:58:05;;;;;;;2.40;2.20;;;5.10;99.90;;;;;;5049510;28;20190;-82
2021/01/13 09:00:32;;;;;;;7.28;2.60;;;5.10;99.90;;;;;;5076435;28;20258;-82
2021/01/13 09:03:07;;;;;;;4.03;2.42;;;5.10;99.90;;;;;;5071892;28;20202;-78
2021/01/13 09:05:35;;;;;;;4.85;2.35;;;5.10;99.90;;;;;;5078070;28;20276;-78
2021/01/13 09:08:04;;;;;;;4.07;2.28;;;5.10;99.90;;;;;;5073925;28;20209;-80
2021/01/13 09:10:55;;;;;;;4.47;2.58;;;5.10;99.90;;;;;;5073975;28;20700;-80
2021/01/13 09:13:37;;;;;;;4.43;2.38;;;5.20;99.90;;;;;;5076093;28;20190;-81
2021/01/13 09:16:35;;;;;;;3.25;2.20;;;5.10;99.90;;;;;;5073907;28;20217;-81
2021/01/13 09:19:11;;;;;;;6.55;2.33;;;5.20;99.90;;;;;;5082200;28;20284;-81
2021/01/13 09:21:40;;;;;;;4.80;2.13;;;5.20;99.90;;;;;;5081833;28;20185;-80
2021/01/13 09:24:09;;;;;;;5.32;2.30;;;5.20;99.90;;;;;;5072092;28;20198;-81
2021/01/13 09:26:37;;;;;;;5.10;2.65;;;5.20;99.90;;;;;;5084224;28;20646;-81
2021/01/13 09:29:06;;;;;;;6.43;2.60;;;5.20;99.90;;;;;;5082811;28;20204;-81
2021/01/13 09:31:33;;;;;;;6.47;3.00;;;5.20;99.90;;;;;;5085918;28;20214;-80
2021/01/13 09:33:59;;;;;;;8.20;2.42;;;5.30;99.90;;;;;;5073045;28;20216;-81
2021/01/13 09:36:26;;;;;;;2.90;2.10;;;5.20;99.90;;;;;;5075641;28;20205;-81
2021/01/13 09:39:12;;;;;;;5.03;2.80;;;5.20;99.90;;;;;;5086773;28;20817;-80
2021/01/13 09:41:41;;;;;;;8.15;3.10;;;5.20;99.90;;;;;;5071733;28;20194;-81
2021/01/13 09:44:12;;;;;;;2.58;2.05;;;5.30;99.90;;;;;;5077459;28;20194;-82
2021/01/13 09:46:39;;;;;;;3.55;2.53;;;5.30;99.90;;;;;;5086387;28;20273;-81
2021/01/13 09:49:07;;;;;;;3.05;2.15;;;5.30;99.90;;;;;;5077380;28;20236;-81
2021/01/13 09:51:34;;;;;;;3.15;1.98;;;5.40;99.90;;;;;;5092298;28;20296;-81
2021/01/13 09:54:02;;;;;;;4.93;2.55;;;5.40;99.90;;;;;;5087711;28;20605;-81
2021/01/13 09:56:31;;;;;;;5.53;2.97;;;5.50;99.90;;;;;;5072675;28;20297;-81
2021/01/13 09:59:00;;;;;;;3.67;3.38;;;5.50;99.90;;;;;;5071677;28;20202;-81
2021/01/13 10:01:27;;;;;;;4.10;2.75;;;5.50;99.90;;;;;;5071391;28;20247;-81
2021/01/13 10:03:55;;;;;;;8.10;2.53;;;5.40;99.90;;;;;;5071430;28;20293;-81
2021/01/13 10:06:23;;;;;;;3.78;2.63;;;5.50;99.90;;;;;;5074068;28;20700;-80
2021/01/13 10:08:51;;;;;;;8.07;3.33;;;5.50;99.90;;;;;;5087740;28;20264;-80
2021/01/13 10:11:19;;;;;;;5.15;2.78;;;5.50;99.90;;;;;;5071525;28;20213;-81
2021/01/13 10:13:57;;;;;;;7.22;2.65;;;5.50;99.90;;;;;;5078060;28;20666;-81
2021/01/13 10:16:24;;;;;;;5.55;2.72;;;5.50;99.90;;;;;;5088910;28;20259;-81
2021/01/13 10:18:52;;;;;;;7.78;2.78;;;5.50;99.90;;;;;;5082060;28;20221;-81
2021/01/13 10:21:19;;;;;;;5.13;3.25;;;5.50;99.90;;;;;;5072428;28;20198;-80
2021/01/13 10:23:48;;;;;;;7.03;4.00;;;5.50;99.90;;;;;;5082503;28;20203;-80
2021/01/13 10:26:15;;;;;;;4.80;3.17;;;5.60;99.90;;;;;;5080946;28;20194;-81
2021/01/13 10:28:41;;;;;;;4.15;3.75;;;5.50;99.90;;;;;;5074255;28;20205;-81
2021/01/13 10:31:10;;;;;;;4.72;2.88;;;5.50;99.90;;;;;;5091118;28;20288;-80
2021/01/13 10:33:47;;;;;;;8.50;3.35;;;5.50;99.90;;;;;;5092982;28;20531;-81
2021/01/13 10:36:31;;;;;;;6.70;4.03;;;5.60;99.90;;;;;;5076006;28;20241;-80
2021/01/13 10:38:58;;;;;;;7.35;3.80;;;5.60;99.90;;;;;;5091907;28;20198;-81
2021/01/13 10:41:32;;;;;;;6.07;3.95;;;5.60;99.90;;;;;;5074546;28;20293;-80
2021/01/13 10:44:04;;;;;;;9.15;5.30;;;5.60;99.90;;;;;;5074525;28;20197;-81
2021/01/13 10:46:52;;;;;;;12.35;3.50;;;5.60;99.90;;;;;;5081444;28;20560;-80
2021/01/13 10:49:34;;;;;;;8.60;4.40;;;5.60;99.90;;;;;;5082645;28;20191;-81
2021/01/13 10:52:06;;;;;;;8.02;3.30;;;5.60;99.90;;;;;;5074437;28;20198;-80
2021/01/13 10:54:34;;;;;;;4.85;4.05;;;5.60;99.90;;;;;;5075083;28;20197;-80
2021/01/13 10:57:03;;;;;;;6.97;3.75;;;5.70;99.90;;;;;;5089847;28;20208;-80
2021/01/13 10:59:30;;;;;;;5.53;3.22;;;5.70;99.90;;;;;;5074309;28;20269;-81
2021/01/13 11:02:02;;;;;;;6.43;4.80;;;5.60;99.90;;;;;;5075109;28;20198;-81
2021/01/13 11:04:35;;;;;;;5.82;3.92;;;5.60;99.90;;;;;;5074086;28;20202;-80
2021/01/13 11:07:04;;;;;;;6.93;4.07;;;5.60;99.90;;;;;;5078705;28;20255;-81
2021/01/13 11:09:31;;;;;;;7.53;3.90;;;5.60;99.90;;;;;;5081664;28;20194;-79
2021/01/13 11:11:58;;;;;;;6.20;3.90;;;5.60;99.90;;;;;;5073909;28;20274;-83
2021/01/13 11:14:46;;;;;;;6.18;4.30;;;5.50;99.90;;;;;;5086434;28;20216;-81
2021/01/13 11:17:16;;;;;;;14.00;4.80;;;5.50;99.90;;;;;;5084484;28;20515;-82
2021/01/13 11:19:47;;;;;;;8.10;4.47;;;5.50;99.90;;;;;;5073909;28;20208;-81
2021/01/13 11:22:15;;;;;;;9.90;4.68;;;5.60;99.90;;;;;;5073675;28;20198;-82
2021/01/13 11:24:46;;;;;;;8.18;4.47;;;5.60;99.90;;;;;;5082947;28;20304;-81
2021/01/13 11:27:18;;;;;;;7.97;5.72;;;5.70;99.90;;;;;;5084643;28;20742;-81
2021/01/13 11:29:46;;;;;;;7.63;4.20;;;5.60;99.90;;;;;;5085146;28;20353;-81
2021/01/13 11:32:16;;;;;;;10.10;5.85;;;5.70;99.90;;;;;;5083051;28;20194;-82
2021/01/13 11:34:52;;;;;;;9.00;5.75;;;5.70;99.90;;;;;;5095599;28;20333;-82
2021/01/13 11:37:45;;;;;;;9.93;4.50;;;5.70;99.90;;;;;;5080940;27;20228;-81
2021/01/13 11:40:40;;;;;;;11.63;4.28;;;5.70;99.90;;;;;;5087501;28;20189;-81
2021/01/13 11:43:38;;;;;;;12.20;5.10;;;5.70;99.90;;;;;;5078495;28;20206;-80
2021/01/13 11:46:14;;;;;;;8.27;4.78;;;5.70;99.90;;;;;;5083232;28;20199;-83
2021/01/13 11:49:27;;;;;;;9.95;4.65;;;5.60;99.90;;;;;;5081873;28;20190;-82
2021/01/13 11:51:56;;;;;;;8.90;5.82;;;5.60;99.90;;;;;;5076202;28;20211;-81
2021/01/13 11:54:24;;;;;;;7.53;4.78;;;5.70;99.90;;;;;;5093176;28;20194;-81
2021/01/13 11:56:50;;;;;;;6.78;5.75;;;5.70;99.90;;;;;;5091548;28;20217;-77
2021/01/13 11:59:25;;;;;;;8.05;5.75;;;5.80;99.90;;;;;;5073002;28;20243;-84
2021/01/13 12:01:52;;;;;;;8.57;5.50;;;5.90;99.90;;;;;;5085458;28;20529;-80
2021/01/13 12:04:20;;;;;;;8.75;6.75;;;5.80;99.90;;;;;;5092822;28;20386;-79
2021/01/13 12:06:55;;;;;;;10.25;6.72;;;5.70;99.90;;;;;;5076691;28;20208;-82
2021/01/13 12:09:21;;;;;;;6.07;5.43;;;5.70;99.90;;;;;;5092844;28;20586;-80
2021/01/13 12:11:49;;;;;;;7.97;6.40;;;5.80;99.90;;;;;;5079514;28;20285;-81
2021/01/13 12:14:15;;;;;;;7.22;6.45;;;5.80;99.90;;;;;;5072740;28;20650;-78
2021/01/13 12:16:42;;;;;;;7.60;6.55;;;5.90;99.90;;;;;;5083581;28;20229;-80
2021/01/13 12:19:08;;;;;;;9.30;6.70;;;5.90;99.90;;;;;;5092775;28;20235;-83
2021/01/13 12:21:36;;;;;;;12.65;8.93;;;5.80;99.90;;;;;;5091900;28;20193;-82
2021/01/13 12:24:15;;;;;;;9.15;8.15;;;5.80;99.90;;;;;;5090721;28;20289;-82
2021/01/13 12:26:42;;;;;;;9.93;6.95;;;5.90;99.90;;;;;;5079421;28;20243;-80
2021/01/13 12:29:18;;;;;;;9.15;6.90;;;6.00;99.90;;;;;;5085206;28;20232;-82
2021/01/13 12:31:46;;;;;;;12.98;7.82;;;5.90;99.90;;;;;;5089833;28;20238;-84
2021/01/13 12:34:14;;;;;;;9.38;8.40;;;5.90;99.90;;;;;;5089743;28;20283;-80
2021/01/13 12:36:43;;;;;;;11.10;7.60;;;5.90;99.90;;;;;;5082196;28;20230;-80
2021/01/13 12:39:10;;;;;;;7.72;6.93;;;5.90;99.90;;;;;;5072307;28;20685;-82
2021/01/13 12:41:37;;;;;;;10.93;7.38;;;6.00;99.90;;;;;;5074384;28;20288;-80
2021/01/13 12:44:06;;;;;;;11.25;8.75;;;6.00;99.90;;;;;;5092497;28;20201;-78
2021/01/13 12:46:34;;;;;;;9.70;6.70;;;5.90;99.90;;;;;;5083936;28;20194;-83
2021/01/13 12:49:02;;;;;;;11.00;7.90;;;5.90;99.90;;;;;;5092589;28;20288;-82
2021/01/13 12:51:30;;;;;;;14.13;7.70;;;6.00;99.90;;;;;;5090049;28;20235;-80
2021/01/13 12:53:58;;;;;;;13.65;8.05;;;6.00;99.90;;;;;;5072105;28;20576;-79
2021/01/13 12:56:26;;;;;;;8.55;6.53;;;6.00;99.90;;;;;;5071608;28;20662;-81
2021/01/13 12:58:54;;;;;;;11.85;7.35;;;6.00;99.90;;;;;;5071868;28;20209;-79
2021/01/13 13:01:20;;;;;;;7.82;7.03;;;6.10;99.90;;;;;;5082131;28;20204;-82
2021/01/13 13:03:47;;;;;;;9.27;6.97;;;6.10;99.90;;;;;;5073918;28;20212;-80
2021/01/13 13:06:23;;;;;;;8.98;6.30;;;6.00;99.90;;;;;;5072494;28;20194;-84
2021/01/13 13:08:50;;;;;;;13.50;7.93;;;6.10;99.90;;;;;;5076262;28;20208;-80
2021/01/13 13:11:17;;;;;;;7.22;6.57;;;6.00;99.90;;;;;;5071810;28;20222;-78
2021/01/13 13:13:44;;;;;;;7.78;6.10;;;6.10;99.90;;;;;;5071245;28;20285;-84
2021/01/13 13:16:10;;;;;;;7.85;6.68;;;6.10;99.90;;;;;;5089348;28;20290;-83
2021/01/13 13:18:37;;;;;;;10.27;6.38;;;6.20;99.90;;;;;;5089350;28;20198;-77
2021/01/13 13:21:04;;;;;;;13.38;6.05;;;6.20;99.90;;;;;;5071375;28;20198;-79
2021/01/13 13:23:31;;;;;;;9.40;6.22;;;6.20;99.90;;;;;;5071451;28;20198;-79
2021/01/13 13:25:57;;;;;;;11.35;6.45;;;6.20;99.90;;;;;;5086712;28;20193;-80